sensor_id;sensor_type;location;lat;lon;timestamp;temperature;humidity
14604;DHT22;7388;51.078;13.740;2024-02-16T00:00:45;12.00;47.80
14604;DHT22;7388;51.078;13.740;2024-02-16T00:03:12;12.00;47.90
14604;DHT22;7388;51.078;13.740;2024-02-16T00:05:38;11.90;48.10
14604;DHT22;7388;51.078;13.740;2024-02-16T00:08:04;11.90;48.10
14604;DHT22;7388;51.078;13.740;2024-02-16T00:10:30;11.90;48.20
14604;DHT22;7388;51.078;13.740;2024-02-16T00:12:56;11.80;48.20
14604;DHT22;7388;51.078;13.740;2024-02-16T00:15:22;11.80;48.50
14604;DHT22;7388;51.078;13.740;2024-02-16T00:17:48;11.80;48.50
14604;DHT22;7388;51.078;13.740;2024-02-16T00:20:14;11.70;48.40
14604;DHT22;7388;51.078;13.740;2024-02-16T00:22:40;11.70;48.40
14604;DHT22;7388;51.078;13.740;2024-02-16T00:25:06;11.70;48.40
14604;DHT22;7388;51.078;13.740;2024-02-16T00:27:32;11.70;48.30
14604;DHT22;7388;51.078;13.740;2024-02-16T00:29:58;11.70;48.10
14604;DHT22;7388;51.078;13.740;2024-02-16T00:32:25;11.70;48.20
14604;DHT22;7388;51.078;13.740;2024-02-16T00:34:56;11.60;48.00
14604;DHT22;7388;51.078;13.740;2024-02-16T00:37:22;11.60;47.80
14604;DHT22;7388;51.078;13.740;2024-02-16T00:39:50;11.60;47.80
14604;DHT22;7388;51.078;13.740;2024-02-16T00:42:15;11.50;48.20
14604;DHT22;7388;51.078;13.740;2024-02-16T00:44:41;11.50;48.10
14604;DHT22;7388;51.078;13.740;2024-02-16T00:47:08;11.50;48.10
14604;DHT22;7388;51.078;13.740;2024-02-16T00:49:35;11.50;48.90
14604;DHT22;7388;51.078;13.740;2024-02-16T00:52:01;11.40;48.00
14604;DHT22;7388;51.078;13.740;2024-02-16T00:54:27;11.40;47.90
14604;DHT22;7388;51.078;13.740;2024-02-16T00:56:53;11.40;47.90
14604;DHT22;7388;51.078;13.740;2024-02-16T00:59:20;11.30;48.10
14604;DHT22;7388;51.078;13.740;2024-02-16T01:01:46;11.30;48.20
14604;DHT22;7388;51.078;13.740;2024-02-16T01:04:12;11.30;49.10
14604;DHT22;7388;51.078;13.740;2024-02-16T01:06:38;11.30;48.50
14604;DHT22;7388;51.078;13.740;2024-02-16T01:09:04;11.20;48.40
14604;DHT22;7388;51.078;13.740;2024-02-16T01:11:29;11.30;48.40
14604;DHT22;7388;51.078;13.740;2024-02-16T01:13:55;11.20;48.40
14604;DHT22;7388;51.078;13.740;2024-02-16T01:16:21;11.20;48.40
14604;DHT22;7388;51.078;13.740;2024-02-16T01:18:47;11.20;48.40
14604;DHT22;7388;51.078;13.740;2024-02-16T01:21:12;11.20;48.40
14604;DHT22;7388;51.078;13.740;2024-02-16T01:23:38;11.20;48.40
14604;DHT22;7388;51.078;13.740;2024-02-16T01:26:04;11.20;48.60
14604;DHT22;7388;51.078;13.740;2024-02-16T01:28:30;11.10;48.70
14604;DHT22;7388;51.078;13.740;2024-02-16T01:30:55;11.10;48.60
14604;DHT22;7388;51.078;13.740;2024-02-16T01:33:24;11.10;48.70
14604;DHT22;7388;51.078;13.740;2024-02-16T01:35:49;11.10;49.00
14604;DHT22;7388;51.078;13.740;2024-02-16T01:38:15;11.10;49.00
14604;DHT22;7388;51.078;13.740;2024-02-16T01:40:41;11.10;49.00
14604;DHT22;7388;51.078;13.740;2024-02-16T01:43:06;11.10;48.90
14604;DHT22;7388;51.078;13.740;2024-02-16T01:45:32;11.10;49.00
14604;DHT22;7388;51.078;13.740;2024-02-16T01:47:58;11.00;49.20
14604;DHT22;7388;51.078;13.740;2024-02-16T01:50:25;11.10;49.50
14604;DHT22;7388;51.078;13.740;2024-02-16T01:52:51;11.10;49.60
14604;DHT22;7388;51.078;13.740;2024-02-16T01:55:19;11.10;49.70
14604;DHT22;7388;51.078;13.740;2024-02-16T01:57:47;11.10;49.40
14604;DHT22;7388;51.078;13.740;2024-02-16T02:00:14;11.10;49.30
14604;DHT22;7388;51.078;13.740;2024-02-16T02:02:46;11.10;49.30
14604;DHT22;7388;51.078;13.740;2024-02-16T02:05:13;11.10;49.40
14604;DHT22;7388;51.078;13.740;2024-02-16T02:07:40;11.10;49.80
14604;DHT22;7388;51.078;13.740;2024-02-16T02:10:06;11.10;50.20
14604;DHT22;7388;51.078;13.740;2024-02-16T02:12:32;11.10;50.30
14604;DHT22;7388;51.078;13.740;2024-02-16T02:14:58;11.20;50.40
14604;DHT22;7388;51.078;13.740;2024-02-16T02:17:24;11.20;50.50
14604;DHT22;7388;51.078;13.740;2024-02-16T02:19:49;11.20;50.60
14604;DHT22;7388;51.078;13.740;2024-02-16T02:22:19;11.20;50.90
14604;DHT22;7388;51.078;13.740;2024-02-16T02:24:46;11.20;51.80
14604;DHT22;7388;51.078;13.740;2024-02-16T02:27:12;12.40;55.40
14604;DHT22;7388;51.078;13.740;2024-02-16T02:29:39;11.60;55.70
14604;DHT22;7388;51.078;13.740;2024-02-16T02:32:05;11.80;56.30
14604;DHT22;7388;51.078;13.740;2024-02-16T02:34:31;12.00;55.90
14604;DHT22;7388;51.078;13.740;2024-02-16T02:36:57;12.20;55.40
14604;DHT22;7388;51.078;13.740;2024-02-16T02:39:23;12.40;55.10
14604;DHT22;7388;51.078;13.740;2024-02-16T02:41:49;12.50;55.40
14604;DHT22;7388;51.078;13.740;2024-02-16T02:44:14;12.70;55.10
14604;DHT22;7388;51.078;13.740;2024-02-16T02:46:40;12.80;54.80
14604;DHT22;7388;51.078;13.740;2024-02-16T02:49:06;12.90;54.40
14604;DHT22;7388;51.078;13.740;2024-02-16T02:51:32;13.00;54.20
14604;DHT22;7388;51.078;13.740;2024-02-16T02:53:58;13.10;54.20
14604;DHT22;7388;51.078;13.740;2024-02-16T02:56:24;13.10;54.00
14604;DHT22;7388;51.078;13.740;2024-02-16T02:58:49;13.20;54.00
14604;DHT22;7388;51.078;13.740;2024-02-16T03:01:15;13.20;53.70
14604;DHT22;7388;51.078;13.740;2024-02-16T03:03:41;13.30;53.90
14604;DHT22;7388;51.078;13.740;2024-02-16T03:06:08;13.40;53.90
14604;DHT22;7388;51.078;13.740;2024-02-16T03:08:35;13.40;53.70
14604;DHT22;7388;51.078;13.740;2024-02-16T03:11:01;13.50;53.40
14604;DHT22;7388;51.078;13.740;2024-02-16T03:13:27;13.60;53.20
14604;DHT22;7388;51.078;13.740;2024-02-16T03:15:53;13.60;53.10
14604;DHT22;7388;51.078;13.740;2024-02-16T03:18:19;13.70;52.90
14604;DHT22;7388;51.078;13.740;2024-02-16T03:20:45;13.70;52.80
14604;DHT22;7388;51.078;13.740;2024-02-16T03:23:14;13.70;52.70
14604;DHT22;7388;51.078;13.740;2024-02-16T03:25:40;13.70;52.60
14604;DHT22;7388;51.078;13.740;2024-02-16T03:28:09;13.80;52.40
14604;DHT22;7388;51.078;13.740;2024-02-16T03:30:35;13.80;52.30
14604;DHT22;7388;51.078;13.740;2024-02-16T03:33:01;13.90;52.30
14604;DHT22;7388;51.078;13.740;2024-02-16T03:35:26;13.90;52.10
14604;DHT22;7388;51.078;13.740;2024-02-16T03:37:53;13.90;52.10
14604;DHT22;7388;51.078;13.740;2024-02-16T03:40:18;13.90;52.10
14604;DHT22;7388;51.078;13.740;2024-02-16T03:42:44;13.80;52.00
14604;DHT22;7388;51.078;13.740;2024-02-16T03:45:10;13.90;52.00
14604;DHT22;7388;51.078;13.740;2024-02-16T03:47:36;13.80;51.80
14604;DHT22;7388;51.078;13.740;2024-02-16T03:50:03;13.90;51.60
14604;DHT22;7388;51.078;13.740;2024-02-16T03:52:28;13.90;51.50
14604;DHT22;7388;51.078;13.740;2024-02-16T03:54:54;13.90;51.50
14604;DHT22;7388;51.078;13.740;2024-02-16T03:57:20;13.90;51.40
14604;DHT22;7388;51.078;13.740;2024-02-16T03:59:46;13.90;51.10
14604;DHT22;7388;51.078;13.740;2024-02-16T04:02:12;13.90;51.10
14604;DHT22;7388;51.078;13.740;2024-02-16T04:04:41;13.80;51.00
14604;DHT22;7388;51.078;13.740;2024-02-16T04:07:07;13.80;51.10
14604;DHT22;7388;51.078;13.740;2024-02-16T04:09:34;13.80;51.10
14604;DHT22;7388;51.078;13.740;2024-02-16T04:12:00;13.80;51.00
14604;DHT22;7388;51.078;13.740;2024-02-16T04:14:26;13.80;50.90
14604;DHT22;7388;51.078;13.740;2024-02-16T04:16:52;13.80;50.90
14604;DHT22;7388;51.078;13.740;2024-02-16T04:19:18;13.80;51.00
14604;DHT22;7388;51.078;13.740;2024-02-16T04:21:44;13.70;51.00
14604;DHT22;7388;51.078;13.740;2024-02-16T04:24:10;13.70;51.20
14604;DHT22;7388;51.078;13.740;2024-02-16T04:26:36;13.70;51.20
14604;DHT22;7388;51.078;13.740;2024-02-16T04:29:03;13.70;51.00
14604;DHT22;7388;51.078;13.740;2024-02-16T04:31:30;13.70;51.10
14604;DHT22;7388;51.078;13.740;2024-02-16T04:33:55;13.60;50.90
14604;DHT22;7388;51.078;13.740;2024-02-16T04:36:21;13.60;50.90
14604;DHT22;7388;51.078;13.740;2024-02-16T04:38:47;13.50;51.10
14604;DHT22;7388;51.078;13.740;2024-02-16T04:41:13;13.50;51.10
14604;DHT22;7388;51.078;13.740;2024-02-16T04:43:38;13.50;51.10
14604;DHT22;7388;51.078;13.740;2024-02-16T04:46:05;13.60;51.00
14604;DHT22;7388;51.078;13.740;2024-02-16T04:48:30;13.50;50.90
14604;DHT22;7388;51.078;13.740;2024-02-16T04:50:57;13.50;50.90
14604;DHT22;7388;51.078;13.740;2024-02-16T04:53:23;13.50;50.90
14604;DHT22;7388;51.078;13.740;2024-02-16T04:55:49;13.50;50.90
14604;DHT22;7388;51.078;13.740;2024-02-16T04:58:15;13.50;50.90
14604;DHT22;7388;51.078;13.740;2024-02-16T05:00:41;13.50;51.00
14604;DHT22;7388;51.078;13.740;2024-02-16T05:03:06;13.50;50.90
14604;DHT22;7388;51.078;13.740;2024-02-16T05:05:32;13.40;50.80
14604;DHT22;7388;51.078;13.740;2024-02-16T05:07:58;13.40;50.80
14604;DHT22;7388;51.078;13.740;2024-02-16T05:10:24;13.40;50.70
14604;DHT22;7388;51.078;13.740;2024-02-16T05:12:49;13.50;50.80
14604;DHT22;7388;51.078;13.740;2024-02-16T05:15:15;13.50;50.60
14604;DHT22;7388;51.078;13.740;2024-02-16T05:17:42;13.50;50.60
14604;DHT22;7388;51.078;13.740;2024-02-16T05:20:11;13.50;50.60
14604;DHT22;7388;51.078;13.740;2024-02-16T05:22:44;13.50;50.50
14604;DHT22;7388;51.078;13.740;2024-02-16T05:25:11;13.50;50.40
14604;DHT22;7388;51.078;13.740;2024-02-16T05:27:37;13.40;50.50
14604;DHT22;7388;51.078;13.740;2024-02-16T05:30:04;13.40;50.60
14604;DHT22;7388;51.078;13.740;2024-02-16T05:32:36;13.30;50.60
14604;DHT22;7388;51.078;13.740;2024-02-16T05:35:03;13.40;50.60
14604;DHT22;7388;51.078;13.740;2024-02-16T05:37:42;13.40;50.50
14604;DHT22;7388;51.078;13.740;2024-02-16T05:40:13;13.30;50.50
14604;DHT22;7388;51.078;13.740;2024-02-16T05:42:51;13.30;50.50
14604;DHT22;7388;51.078;13.740;2024-02-16T05:45:17;13.30;50.40
14604;DHT22;7388;51.078;13.740;2024-02-16T05:47:45;13.40;50.40
14604;DHT22;7388;51.078;13.740;2024-02-16T05:50:14;13.30;50.30
14604;DHT22;7388;51.078;13.740;2024-02-16T05:52:41;13.30;50.10
14604;DHT22;7388;51.078;13.740;2024-02-16T05:55:10;13.30;50.10
14604;DHT22;7388;51.078;13.740;2024-02-16T05:57:37;13.30;50.10
14604;DHT22;7388;51.078;13.740;2024-02-16T06:00:05;13.30;50.00
14604;DHT22;7388;51.078;13.740;2024-02-16T06:02:34;13.30;49.90
14604;DHT22;7388;51.078;13.740;2024-02-16T06:05:01;13.40;49.70
14604;DHT22;7388;51.078;13.740;2024-02-16T06:07:28;13.40;49.60
14604;DHT22;7388;51.078;13.740;2024-02-16T06:09:55;13.30;49.80
14604;DHT22;7388;51.078;13.740;2024-02-16T06:12:21;13.40;49.60
14604;DHT22;7388;51.078;13.740;2024-02-16T06:14:47;13.30;49.70
14604;DHT22;7388;51.078;13.740;2024-02-16T06:17:18;13.30;49.50
14604;DHT22;7388;51.078;13.740;2024-02-16T06:19:43;13.20;49.40
14604;DHT22;7388;51.078;13.740;2024-02-16T06:22:09;13.20;49.50
14604;DHT22;7388;51.078;13.740;2024-02-16T06:24:36;13.20;49.50
14604;DHT22;7388;51.078;13.740;2024-02-16T06:27:02;13.20;49.40
14604;DHT22;7388;51.078;13.740;2024-02-16T06:29:28;13.20;49.40
14604;DHT22;7388;51.078;13.740;2024-02-16T06:31:56;13.20;49.30
14604;DHT22;7388;51.078;13.740;2024-02-16T06:34:22;13.20;49.30
14604;DHT22;7388;51.078;13.740;2024-02-16T06:36:48;13.20;49.40
14604;DHT22;7388;51.078;13.740;2024-02-16T06:39:16;13.10;49.40
14604;DHT22;7388;51.078;13.740;2024-02-16T06:41:44;13.20;49.30
14604;DHT22;7388;51.078;13.740;2024-02-16T06:44:12;13.20;49.10
14604;DHT22;7388;51.078;13.740;2024-02-16T06:46:38;13.10;49.10
14604;DHT22;7388;51.078;13.740;2024-02-16T06:49:03;13.10;49.10
14604;DHT22;7388;51.078;13.740;2024-02-16T06:51:29;13.10;49.10
14604;DHT22;7388;51.078;13.740;2024-02-16T06:53:55;13.10;49.10
14604;DHT22;7388;51.078;13.740;2024-02-16T06:56:21;13.10;49.00
14604;DHT22;7388;51.078;13.740;2024-02-16T06:58:47;13.10;49.00
14604;DHT22;7388;51.078;13.740;2024-02-16T07:01:14;13.20;49.50
14604;DHT22;7388;51.078;13.740;2024-02-16T07:03:40;13.20;48.80
14604;DHT22;7388;51.078;13.740;2024-02-16T07:06:06;13.20;48.60
14604;DHT22;7388;51.078;13.740;2024-02-16T07:08:36;13.30;48.60
14604;DHT22;7388;51.078;13.740;2024-02-16T07:11:02;13.50;48.40
14604;DHT22;7388;51.078;13.740;2024-02-16T07:13:29;13.80;47.70
14604;DHT22;7388;51.078;13.740;2024-02-16T07:15:54;14.10;46.90
14604;DHT22;7388;51.078;13.740;2024-02-16T07:18:20;14.50;46.50
14604;DHT22;7388;51.078;13.740;2024-02-16T07:20:47;14.70;45.50
14604;DHT22;7388;51.078;13.740;2024-02-16T07:23:13;14.60;44.80
14604;DHT22;7388;51.078;13.740;2024-02-16T07:25:41;14.50;44.90
14604;DHT22;7388;51.078;13.740;2024-02-16T07:28:07;14.60;45.20
14604;DHT22;7388;51.078;13.740;2024-02-16T07:30:34;14.80;45.20
14604;DHT22;7388;51.078;13.740;2024-02-16T07:33:02;15.20;44.60
14604;DHT22;7388;51.078;13.740;2024-02-16T07:35:28;15.50;43.30
14604;DHT22;7388;51.078;13.740;2024-02-16T07:37:53;15.70;42.80
14604;DHT22;7388;51.078;13.740;2024-02-16T07:40:20;15.80;42.30
14604;DHT22;7388;51.078;13.740;2024-02-16T07:42:46;15.70;42.30
14604;DHT22;7388;51.078;13.740;2024-02-16T07:45:12;15.40;42.30
14604;DHT22;7388;51.078;13.740;2024-02-16T07:47:40;15.10;42.90
14604;DHT22;7388;51.078;13.740;2024-02-16T07:50:06;14.90;43.60
14604;DHT22;7388;51.078;13.740;2024-02-16T07:52:32;14.90;43.90
14604;DHT22;7388;51.078;13.740;2024-02-16T07:54:58;15.10;43.70
14604;DHT22;7388;51.078;13.740;2024-02-16T07:57:24;15.10;43.60
14604;DHT22;7388;51.078;13.740;2024-02-16T07:59:50;15.00;43.50
14604;DHT22;7388;51.078;13.740;2024-02-16T08:02:15;15.10;43.70
14604;DHT22;7388;51.078;13.740;2024-02-16T08:04:46;15.30;43.40
14604;DHT22;7388;51.078;13.740;2024-02-16T08:07:12;15.60;42.90
14604;DHT22;7388;51.078;13.740;2024-02-16T08:09:38;16.10;42.40
14604;DHT22;7388;51.078;13.740;2024-02-16T08:12:05;16.50;41.30
14604;DHT22;7388;51.078;13.740;2024-02-16T08:14:35;17.10;39.70
14604;DHT22;7388;51.078;13.740;2024-02-16T08:17:01;17.40;39.20
14604;DHT22;7388;51.078;13.740;2024-02-16T08:19:36;17.10;38.60
14604;DHT22;7388;51.078;13.740;2024-02-16T08:22:03;16.90;39.00
14604;DHT22;7388;51.078;13.740;2024-02-16T08:24:32;16.90;39.10
14604;DHT22;7388;51.078;13.740;2024-02-16T08:26:58;17.30;39.00
14604;DHT22;7388;51.078;13.740;2024-02-16T08:29:24;17.00;38.70
14604;DHT22;7388;51.078;13.740;2024-02-16T08:31:51;16.70;38.80
14604;DHT22;7388;51.078;13.740;2024-02-16T08:34:17;16.30;39.60
14604;DHT22;7388;51.078;13.740;2024-02-16T08:36:47;15.90;40.20
14604;DHT22;7388;51.078;13.740;2024-02-16T08:39:14;15.70;41.30
14604;DHT22;7388;51.078;13.740;2024-02-16T08:41:39;15.50;41.90
14604;DHT22;7388;51.078;13.740;2024-02-16T08:44:08;15.40;42.10
14604;DHT22;7388;51.078;13.740;2024-02-16T08:46:36;15.30;42.10
14604;DHT22;7388;51.078;13.740;2024-02-16T08:49:02;15.20;42.60
14604;DHT22;7388;51.078;13.740;2024-02-16T08:51:28;15.20;42.70
14604;DHT22;7388;51.078;13.740;2024-02-16T08:53:54;15.10;42.70
14604;DHT22;7388;51.078;13.740;2024-02-16T08:56:20;15.10;43.70
14604;DHT22;7388;51.078;13.740;2024-02-16T08:58:46;15.10;43.00
14604;DHT22;7388;51.078;13.740;2024-02-16T09:01:11;15.20;43.00
14604;DHT22;7388;51.078;13.740;2024-02-16T09:03:37;15.40;42.90
14604;DHT22;7388;51.078;13.740;2024-02-16T09:06:05;15.70;42.80
14604;DHT22;7388;51.078;13.740;2024-02-16T09:08:32;15.80;41.80
14604;DHT22;7388;51.078;13.740;2024-02-16T09:11:03;15.80;42.00
14604;DHT22;7388;51.078;13.740;2024-02-16T09:13:33;15.90;41.80
14604;DHT22;7388;51.078;13.740;2024-02-16T09:16:00;15.90;41.60
14604;DHT22;7388;51.078;13.740;2024-02-16T09:18:26;16.00;41.30
14604;DHT22;7388;51.078;13.740;2024-02-16T09:20:51;16.40;40.40
14604;DHT22;7388;51.078;13.740;2024-02-16T09:23:17;16.50;41.10
14604;DHT22;7388;51.078;13.740;2024-02-16T09:25:43;16.60;40.30
14604;DHT22;7388;51.078;13.740;2024-02-16T09:28:11;16.50;40.00
14604;DHT22;7388;51.078;13.740;2024-02-16T09:30:38;16.50;40.00
14604;DHT22;7388;51.078;13.740;2024-02-16T09:33:03;16.40;40.10
14604;DHT22;7388;51.078;13.740;2024-02-16T09:35:29;16.20;39.90
14604;DHT22;7388;51.078;13.740;2024-02-16T09:37:55;16.10;40.40
14604;DHT22;7388;51.078;13.740;2024-02-16T09:40:22;16.00;41.00
14604;DHT22;7388;51.078;13.740;2024-02-16T09:42:49;15.90;40.50
14604;DHT22;7388;51.078;13.740;2024-02-16T09:45:15;15.90;41.40
14604;DHT22;7388;51.078;13.740;2024-02-16T09:47:45;15.80;41.00
14604;DHT22;7388;51.078;13.740;2024-02-16T09:50:12;15.90;40.90
14604;DHT22;7388;51.078;13.740;2024-02-16T09:52:41;15.90;41.20
14604;DHT22;7388;51.078;13.740;2024-02-16T09:55:12;15.90;41.10
14604;DHT22;7388;51.078;13.740;2024-02-16T09:57:38;16.10;40.60
14604;DHT22;7388;51.078;13.740;2024-02-16T10:00:04;16.40;40.90
14604;DHT22;7388;51.078;13.740;2024-02-16T10:02:48;16.60;39.70
14604;DHT22;7388;51.078;13.740;2024-02-16T10:05:19;16.90;39.50
14604;DHT22;7388;51.078;13.740;2024-02-16T10:07:46;16.90;38.90
14604;DHT22;7388;51.078;13.740;2024-02-16T10:10:27;16.80;38.90
14604;DHT22;7388;51.078;13.740;2024-02-16T10:13:05;16.70;39.00
14604;DHT22;7388;51.078;13.740;2024-02-16T10:15:34;16.60;39.10
14604;DHT22;7388;51.078;13.740;2024-02-16T10:18:04;16.50;39.40
14604;DHT22;7388;51.078;13.740;2024-02-16T10:20:34;16.40;39.10
14604;DHT22;7388;51.078;13.740;2024-02-16T10:23:07;16.30;39.30
14604;DHT22;7388;51.078;13.740;2024-02-16T10:25:35;16.20;39.40
14604;DHT22;7388;51.078;13.740;2024-02-16T10:28:20;16.10;40.00
14604;DHT22;7388;51.078;13.740;2024-02-16T10:30:57;16.00;40.10
14604;DHT22;7388;51.078;13.740;2024-02-16T10:33:25;16.00;40.00
14604;DHT22;7388;51.078;13.740;2024-02-16T10:35:55;16.00;40.20
14604;DHT22;7388;51.078;13.740;2024-02-16T10:38:21;16.00;40.20
14604;DHT22;7388;51.078;13.740;2024-02-16T10:40:48;16.00;39.80
14604;DHT22;7388;51.078;13.740;2024-02-16T10:43:17;16.00;40.00
14604;DHT22;7388;51.078;13.740;2024-02-16T10:45:43;16.10;40.10
14604;DHT22;7388;51.078;13.740;2024-02-16T10:48:11;16.10;40.10
14604;DHT22;7388;51.078;13.740;2024-02-16T10:50:37;16.20;40.20
14604;DHT22;7388;51.078;13.740;2024-02-16T10:53:14;16.30;40.00
14604;DHT22;7388;51.078;13.740;2024-02-16T10:55:41;16.40;40.00
14604;DHT22;7388;51.078;13.740;2024-02-16T10:58:07;16.40;40.00
14604;DHT22;7388;51.078;13.740;2024-02-16T11:00:35;16.50;39.70
14604;DHT22;7388;51.078;13.740;2024-02-16T11:03:03;16.60;39.80
14604;DHT22;7388;51.078;13.740;2024-02-16T11:05:35;16.70;39.20
14604;DHT22;7388;51.078;13.740;2024-02-16T11:08:05;16.80;39.30
14604;DHT22;7388;51.078;13.740;2024-02-16T11:10:36;16.90;39.10
14604;DHT22;7388;51.078;13.740;2024-02-16T11:13:03;16.90;38.60
14604;DHT22;7388;51.078;13.740;2024-02-16T11:15:34;17.00;38.60
14604;DHT22;7388;51.078;13.740;2024-02-16T11:18:02;17.10;38.40
14604;DHT22;7388;51.078;13.740;2024-02-16T11:20:28;17.10;38.20
14604;DHT22;7388;51.078;13.740;2024-02-16T11:23:05;17.00;38.60
14604;DHT22;7388;51.078;13.740;2024-02-16T11:25:33;16.90;38.60
14604;DHT22;7388;51.078;13.740;2024-02-16T11:27:59;16.80;38.60
14604;DHT22;7388;51.078;13.740;2024-02-16T11:30:25;16.70;38.50
14604;DHT22;7388;51.078;13.740;2024-02-16T11:32:54;16.50;38.20
14604;DHT22;7388;51.078;13.740;2024-02-16T11:35:20;16.30;38.70
14604;DHT22;7388;51.078;13.740;2024-02-16T11:37:45;16.30;39.50
14604;DHT22;7388;51.078;13.740;2024-02-16T11:40:12;16.40;39.70
14604;DHT22;7388;51.078;13.740;2024-02-16T11:42:39;16.40;39.00
14604;DHT22;7388;51.078;13.740;2024-02-16T11:45:05;16.40;38.80
14604;DHT22;7388;51.078;13.740;2024-02-16T11:47:31;16.40;39.10
14604;DHT22;7388;51.078;13.740;2024-02-16T11:52:27;16.40;38.90
14604;DHT22;7388;51.078;13.740;2024-02-16T11:54:53;16.40;39.00
14604;DHT22;7388;51.078;13.740;2024-02-16T11:57:19;16.30;39.30
14604;DHT22;7388;51.078;13.740;2024-02-16T11:59:45;16.20;39.30
14604;DHT22;7388;51.078;13.740;2024-02-16T12:02:17;16.20;39.40
14604;DHT22;7388;51.078;13.740;2024-02-16T12:04:47;16.30;39.60
14604;DHT22;7388;51.078;13.740;2024-02-16T12:07:13;16.40;40.00
14604;DHT22;7388;51.078;13.740;2024-02-16T12:09:40;16.50;39.40
14604;DHT22;7388;51.078;13.740;2024-02-16T12:12:06;16.60;39.20
14604;DHT22;7388;51.078;13.740;2024-02-16T12:14:32;16.70;39.10
14604;DHT22;7388;51.078;13.740;2024-02-16T12:16:58;16.70;38.40
14604;DHT22;7388;51.078;13.740;2024-02-16T12:19:25;16.80;38.50
14604;DHT22;7388;51.078;13.740;2024-02-16T12:21:52;16.90;38.10
14604;DHT22;7388;51.078;13.740;2024-02-16T12:24:21;17.00;38.30
14604;DHT22;7388;51.078;13.740;2024-02-16T12:26:47;17.20;37.40
14604;DHT22;7388;51.078;13.740;2024-02-16T12:29:13;17.40;37.40
14604;DHT22;7388;51.078;13.740;2024-02-16T12:31:43;17.90;37.10
14604;DHT22;7388;51.078;13.740;2024-02-16T12:34:10;18.70;35.50
14604;DHT22;7388;51.078;13.740;2024-02-16T12:36:40;19.10;35.30
14604;DHT22;7388;51.078;13.740;2024-02-16T12:39:06;19.30;35.60
14604;DHT22;7388;51.078;13.740;2024-02-16T12:41:34;19.50;34.60
14604;DHT22;7388;51.078;13.740;2024-02-16T12:44:01;19.70;34.10
14604;DHT22;7388;51.078;13.740;2024-02-16T12:46:27;19.60;33.50
14604;DHT22;7388;51.078;13.740;2024-02-16T12:48:54;19.60;33.20
14604;DHT22;7388;51.078;13.740;2024-02-16T12:51:19;19.60;33.10
14604;DHT22;7388;51.078;13.740;2024-02-16T12:53:45;19.50;33.00
14604;DHT22;7388;51.078;13.740;2024-02-16T12:56:11;19.60;33.20
14604;DHT22;7388;51.078;13.740;2024-02-16T12:58:37;19.90;33.50
14604;DHT22;7388;51.078;13.740;2024-02-16T13:01:07;20.10;32.10
14604;DHT22;7388;51.078;13.740;2024-02-16T13:03:37;20.70;31.70
14604;DHT22;7388;51.078;13.740;2024-02-16T13:06:03;21.30;30.90
14604;DHT22;7388;51.078;13.740;2024-02-16T13:08:30;21.70;30.80
14604;DHT22;7388;51.078;13.740;2024-02-16T13:10:56;21.90;29.10
14604;DHT22;7388;51.078;13.740;2024-02-16T13:13:22;21.60;29.60
14604;DHT22;7388;51.078;13.740;2024-02-16T13:15:48;21.20;30.30
14604;DHT22;7388;51.078;13.740;2024-02-16T13:18:14;20.70;30.90
14604;DHT22;7388;51.078;13.740;2024-02-16T13:20:40;20.40;31.00
14604;DHT22;7388;51.078;13.740;2024-02-16T13:23:06;20.20;31.10
14604;DHT22;7388;51.078;13.740;2024-02-16T13:25:32;20.00;31.40
14604;DHT22;7388;51.078;13.740;2024-02-16T13:27:58;19.90;31.60
14604;DHT22;7388;51.078;13.740;2024-02-16T13:30:25;19.70;31.70
14604;DHT22;7388;51.078;13.740;2024-02-16T13:32:51;19.40;32.10
14604;DHT22;7388;51.078;13.740;2024-02-16T13:35:16;19.20;32.50
14604;DHT22;7388;51.078;13.740;2024-02-16T13:37:42;18.90;33.00
14604;DHT22;7388;51.078;13.740;2024-02-16T13:40:08;18.80;33.70
14604;DHT22;7388;51.078;13.740;2024-02-16T13:42:43;18.70;33.80
14604;DHT22;7388;51.078;13.740;2024-02-16T13:45:09;18.60;34.30
14604;DHT22;7388;51.078;13.740;2024-02-16T13:47:35;18.40;34.40
14604;DHT22;7388;51.078;13.740;2024-02-16T13:50:01;18.20;34.40
14604;DHT22;7388;51.078;13.740;2024-02-16T13:52:27;18.00;35.00
14604;DHT22;7388;51.078;13.740;2024-02-16T13:54:53;17.80;35.40
14604;DHT22;7388;51.078;13.740;2024-02-16T13:57:19;17.70;35.60
14604;DHT22;7388;51.078;13.740;2024-02-16T13:59:46;17.60;35.40
14604;DHT22;7388;51.078;13.740;2024-02-16T14:02:12;17.40;35.90
14604;DHT22;7388;51.078;13.740;2024-02-16T14:04:38;17.20;36.40
14604;DHT22;7388;51.078;13.740;2024-02-16T14:07:04;17.10;36.60
14604;DHT22;7388;51.078;13.740;2024-02-16T14:09:30;17.00;36.70
14604;DHT22;7388;51.078;13.740;2024-02-16T14:11:56;16.90;37.10
14604;DHT22;7388;51.078;13.740;2024-02-16T14:14:24;16.90;37.00
14604;DHT22;7388;51.078;13.740;2024-02-16T14:16:50;17.00;37.10
14604;DHT22;7388;51.078;13.740;2024-02-16T14:19:17;17.00;37.00
14604;DHT22;7388;51.078;13.740;2024-02-16T14:21:46;17.00;36.90
14604;DHT22;7388;51.078;13.740;2024-02-16T14:24:13;17.00;37.00
14604;DHT22;7388;51.078;13.740;2024-02-16T14:26:39;17.00;37.00
14604;DHT22;7388;51.078;13.740;2024-02-16T14:29:05;17.00;36.80
14604;DHT22;7388;51.078;13.740;2024-02-16T14:31:32;17.00;37.20
14604;DHT22;7388;51.078;13.740;2024-02-16T14:33:59;16.90;37.20
14604;DHT22;7388;51.078;13.740;2024-02-16T14:36:25;16.80;37.10
14604;DHT22;7388;51.078;13.740;2024-02-16T14:38:50;16.80;37.60
14604;DHT22;7388;51.078;13.740;2024-02-16T14:41:16;16.80;37.70
14604;DHT22;7388;51.078;13.740;2024-02-16T14:43:42;16.70;37.70
14604;DHT22;7388;51.078;13.740;2024-02-16T14:46:09;16.70;37.60
14604;DHT22;7388;51.078;13.740;2024-02-16T14:48:35;16.70;37.70
14604;DHT22;7388;51.078;13.740;2024-02-16T14:51:02;16.60;38.00
14604;DHT22;7388;51.078;13.740;2024-02-16T14:53:28;16.60;38.30
14604;DHT22;7388;51.078;13.740;2024-02-16T14:55:58;16.50;37.90
14604;DHT22;7388;51.078;13.740;2024-02-16T14:58:24;16.40;38.20
14604;DHT22;7388;51.078;13.740;2024-02-16T15:00:51;16.40;38.40
14604;DHT22;7388;51.078;13.740;2024-02-16T15:03:16;16.30;38.60
14604;DHT22;7388;51.078;13.740;2024-02-16T15:05:44;16.30;38.80
14604;DHT22;7388;51.078;13.740;2024-02-16T15:08:10;16.30;38.70
14604;DHT22;7388;51.078;13.740;2024-02-16T15:10:36;16.30;38.80
14604;DHT22;7388;51.078;13.740;2024-02-16T15:13:02;16.20;39.00
14604;DHT22;7388;51.078;13.740;2024-02-16T15:15:27;16.20;39.10
14604;DHT22;7388;51.078;13.740;2024-02-16T15:17:53;16.10;39.40
14604;DHT22;7388;51.078;13.740;2024-02-16T15:20:19;16.00;39.30
14604;DHT22;7388;51.078;13.740;2024-02-16T15:22:47;16.00;39.50
14604;DHT22;7388;51.078;13.740;2024-02-16T15:25:13;15.90;39.50
14604;DHT22;7388;51.078;13.740;2024-02-16T15:27:39;15.90;39.70
14604;DHT22;7388;51.078;13.740;2024-02-16T15:30:05;15.90;39.50